createdAt,value
2019-03-03T00:01:37.875Z,100246.30
2019-03-03T00:04:07.701Z,100249.12
2019-03-03T00:06:37.338Z,100248.28
2019-03-03T00:09:07.597Z,100249.66
2019-03-03T00:11:37.376Z,100246.58
2019-03-03T00:14:06.945Z,100251.23
2019-03-03T00:16:36.618Z,100246.66
2019-03-03T00:19:06.268Z,100250.09
2019-03-03T00:21:36.025Z,100248.22
2019-03-03T00:24:05.679Z,100254.91
2019-03-03T00:26:35.351Z,100247.20
2019-03-03T00:29:05.009Z,100247.37
2019-03-03T00:31:39.338Z,100244.24
2019-03-03T00:34:08.927Z,100247.16
2019-03-03T00:36:56.519Z,100249.93
2019-03-03T00:39:47.846Z,100242.55
2019-03-03T00:42:42.331Z,100254.52
2019-03-03T00:45:34.567Z,100248.36
2019-03-03T00:48:38.075Z,100242.33
2019-03-03T00:51:17.917Z,100240.45
2019-03-03T00:54:00.123Z,100228.59
2019-03-03T00:57:04.137Z,100223.12
2019-03-03T01:00:02.065Z,100215.36
2019-03-03T01:02:39.191Z,100230.98
2019-03-03T01:05:30.843Z,100224.92
2019-03-03T01:08:17.729Z,100223.47
2019-03-03T01:10:53.089Z,100215.90
2019-03-03T01:13:57.053Z,100217.92
2019-03-03T01:16:44.005Z,100207.81
2019-03-03T01:19:36.853Z,100213.05
2019-03-03T01:22:37.282Z,100223.67
2019-03-03T01:25:07.075Z,100216.32
2019-03-03T01:27:36.737Z,100211.15
2019-03-03T01:30:09.176Z,100204.38
2019-03-03T01:32:38.795Z,100211.61
2019-03-03T01:35:09.084Z,100201.03
2019-03-03T01:37:38.792Z,100201.92
2019-03-03T01:40:08.806Z,100203.53
2019-03-03T01:42:38.376Z,100192.77
2019-03-03T01:45:09.910Z,100194.69
2019-03-03T01:47:39.536Z,100190.17
2019-03-03T01:50:10.117Z,100181.14
2019-03-03T01:52:39.765Z,100176.50
2019-03-03T01:55:11.405Z,100176.92
2019-03-03T01:57:41.014Z,100174.41
2019-03-03T02:00:24.326Z,100172.64
2019-03-03T02:02:53.974Z,100168.27
2019-03-03T02:05:42.472Z,100166.27
2019-03-03T02:08:11.854Z,100160.62
2019-03-03T02:10:41.282Z,100149.55
2019-03-03T02:13:10.614Z,100150.78
2019-03-03T02:15:40.022Z,100143.61
2019-03-03T02:18:09.413Z,100138.66
2019-03-03T02:20:38.881Z,100146.17
2019-03-03T02:23:08.248Z,100136.23
2019-03-03T02:25:37.641Z,100135.85
2019-03-03T02:28:06.989Z,100137.31
2019-03-03T02:30:36.392Z,100146.96
2019-03-03T02:33:05.779Z,100148.45
2019-03-03T02:35:35.200Z,100155.31
2019-03-03T02:38:04.542Z,100162.66
2019-03-03T02:40:34.006Z,100150.06
2019-03-03T02:43:03.404Z,100144.73
2019-03-03T02:45:32.736Z,100145.44
2019-03-03T02:48:02.150Z,100147.00
2019-03-03T02:50:31.487Z,100133.66
2019-03-03T02:53:00.876Z,100133.03
2019-03-03T02:55:30.243Z,100133.42
2019-03-03T02:57:59.644Z,100134.65
2019-03-03T03:00:29.101Z,100126.94
2019-03-03T03:02:59.998Z,100123.89
2019-03-03T03:05:45.436Z,100111.27
2019-03-03T03:08:18.858Z,100115.49
2019-03-03T03:10:53.573Z,100107.02
2019-03-03T03:14:00.037Z,100108.48
2019-03-03T03:17:03.344Z,100101.77
2019-03-03T03:19:51.596Z,100095.53
2019-03-03T03:22:42.926Z,100102.40
2019-03-03T03:25:43.310Z,100104.23
2019-03-03T03:28:30.211Z,100106.25
2019-03-03T03:31:06.893Z,100100.72
2019-03-03T03:33:48.969Z,100089.33
2019-03-03T03:36:40.021Z,100094.91
2019-03-03T03:39:19.539Z,100097.65
2019-03-03T03:42:10.875Z,100095.32
2019-03-03T03:45:05.122Z,100098.97
2019-03-03T03:47:59.714Z,100093.31
2019-03-03T03:50:46.757Z,100092.75
2019-03-03T03:53:41.313Z,100094.81
2019-03-03T03:56:35.841Z,100094.14
2019-03-03T03:59:22.798Z,100097.04
2019-03-03T04:02:10.282Z,100104.44
2019-03-03T04:04:52.633Z,100094.59
2019-03-03T04:07:40.926Z,100093.86
2019-03-03T04:10:19.261Z,100102.25
2019-03-03T04:13:00.398Z,100101.37
2019-03-03T04:16:00.866Z,100092.59
2019-03-03T04:18:58.244Z,100094.75
2019-03-03T04:21:53.380Z,100081.20
2019-03-03T04:24:50.862Z,100077.46
2019-03-03T04:27:48.414Z,100082.74
2019-03-03T04:30:55.040Z,100079.00
2019-03-03T04:33:37.044Z,100077.55
2019-03-03T04:36:29.178Z,100064.11
2019-03-03T04:39:16.570Z,100054.03
2019-03-03T04:42:07.841Z,100046.84
2019-03-03T04:44:48.772Z,100044.20
2019-03-03T04:47:35.708Z,100042.17
2019-03-03T04:50:24.554Z,100040.73
2019-03-03T04:53:31.020Z,100035.98
2019-03-03T04:56:15.403Z,100029.94
2019-03-03T04:59:02.366Z,100020.59
2019-03-03T05:01:56.267Z,100011.02
2019-03-03T05:04:44.575Z,100015.58
2019-03-03T05:07:31.672Z,100017.73
2019-03-03T05:10:22.765Z,100014.52
2019-03-03T05:13:07.287Z,100015.70
2019-03-03T05:16:04.715Z,100024.20
2019-03-03T05:18:53.006Z,100018.83
2019-03-03T05:21:22.387Z,100013.06
2019-03-03T05:23:51.835Z,100010.03
2019-03-03T05:26:21.272Z,100007.19
2019-03-03T05:28:50.703Z,100006.91
2019-03-03T05:31:20.122Z,100004.22
2019-03-03T05:33:49.542Z,100004.22
2019-03-03T05:36:19.226Z,100004.02
2019-03-03T05:38:48.692Z,100000.52
2019-03-03T05:41:18.073Z,99995.69
2019-03-03T05:43:47.462Z,99999.34
2019-03-03T05:46:16.906Z,99997.97
2019-03-03T05:48:46.314Z,99991.88
2019-03-03T05:51:15.725Z,99987.27
2019-03-03T05:53:45.132Z,99986.75
2019-03-03T05:56:16.304Z,99994.83
2019-03-03T05:58:45.823Z,99990.03
2019-03-03T06:01:15.223Z,99981.39
2019-03-03T06:03:44.586Z,99985.30
2019-03-03T06:06:14.064Z,99978.75
2019-03-03T06:08:43.416Z,99979.28
2019-03-03T06:11:13.236Z,99968.72
2019-03-03T06:13:42.613Z,99967.77
2019-03-03T06:16:12.063Z,99978.44
2019-03-03T06:18:41.462Z,99987.09
2019-03-03T06:21:10.873Z,99990.55
2019-03-03T06:23:40.294Z,99990.23
2019-03-03T06:26:09.742Z,99992.59
2019-03-03T06:28:39.203Z,99994.48
2019-03-03T06:31:08.628Z,99990.79
2019-03-03T06:33:38.054Z,99992.04
2019-03-03T06:36:07.479Z,99985.25
2019-03-03T06:38:36.859Z,99985.84
2019-03-03T06:41:06.267Z,99995.08
2019-03-03T06:43:35.625Z,99993.93
2019-03-03T06:46:05.056Z,100000.12
2019-03-03T06:48:34.439Z,100002.41
2019-03-03T06:51:03.864Z,100000.84
2019-03-03T06:53:33.298Z,100003.04
2019-03-03T06:56:02.735Z,99996.72
2019-03-03T06:58:32.112Z,99999.26
2019-03-03T07:01:01.512Z,99996.27
2019-03-03T07:03:31.013Z,100003.61
2019-03-03T07:06:00.423Z,100008.50
2019-03-03T07:08:29.864Z,100015.40
2019-03-03T07:10:59.247Z,100016.14
2019-03-03T07:13:28.691Z,100009.97
2019-03-03T07:15:58.058Z,100011.81
2019-03-03T07:18:27.500Z,100011.86
2019-03-03T07:20:56.883Z,100010.62
2019-03-03T07:23:26.315Z,100016.51
2019-03-03T07:25:55.692Z,100016.95
2019-03-03T07:28:25.109Z,100013.84
2019-03-03T07:30:54.460Z,100013.77
2019-03-03T07:33:32.098Z,100020.33
2019-03-03T07:36:01.482Z,100017.48
2019-03-03T07:38:30.922Z,100017.98
2019-03-03T07:41:00.305Z,100020.12
2019-03-03T07:43:29.801Z,100020.91
2019-03-03T07:45:59.187Z,100014.56
2019-03-03T07:48:28.618Z,100029.75
2019-03-03T07:50:58.008Z,100020.52
2019-03-03T07:53:27.440Z,100015.21
2019-03-03T07:55:56.816Z,100015.43
2019-03-03T07:58:26.255Z,100009.21
2019-03-03T08:00:55.647Z,100024.78
2019-03-03T08:03:25.075Z,100029.27
2019-03-03T08:05:54.466Z,100034.48
2019-03-03T08:08:23.938Z,100036.24
2019-03-03T08:10:53.348Z,100035.42
2019-03-03T08:13:22.786Z,100038.93
2019-03-03T08:15:52.285Z,100038.36
2019-03-03T08:18:21.711Z,100028.45
2019-03-03T08:20:51.176Z,100034.20
2019-03-03T08:23:20.581Z,100032.83
2019-03-03T08:25:50.080Z,100040.27
2019-03-03T08:28:19.475Z,100037.67
2019-03-03T08:30:48.923Z,100042.62
2019-03-03T08:33:18.333Z,100045.83
2019-03-03T08:35:47.796Z,100049.30
2019-03-03T08:38:17.151Z,100051.28
2019-03-03T08:40:46.646Z,100044.80
2019-03-03T08:43:25.437Z,100034.36
2019-03-03T08:46:11.643Z,100039.77
2019-03-03T08:48:54.449Z,100029.43
2019-03-03T08:51:48.516Z,100031.83
2019-03-03T08:54:39.875Z,100019.75
2019-03-03T08:57:31.133Z,100020.73
2019-03-03T09:00:18.252Z,100022.48
2019-03-03T09:03:24.956Z,100014.39
2019-03-03T09:06:16.295Z,100009.75
2019-03-03T09:08:56.904Z,100012.29
2019-03-03T09:11:45.205Z,100010.48
2019-03-03T09:14:48.753Z,100007.72
2019-03-03T09:17:26.683Z,100011.56
2019-03-03T09:20:07.585Z,100000.75
2019-03-03T09:23:07.957Z,100006.26
2019-03-03T09:25:48.436Z,99998.12
2019-03-03T09:28:48.915Z,99992.16
2019-03-03T09:31:43.226Z,99992.57
2019-03-03T09:34:34.724Z,99996.30
2019-03-03T09:37:18.707Z,99986.11
2019-03-03T09:40:09.023Z,99978.45
2019-03-03T09:42:47.466Z,99988.19
2019-03-03T09:45:51.205Z,99984.39
2019-03-03T09:48:54.395Z,99986.04
2019-03-03T09:51:48.968Z,99990.80
2019-03-03T09:54:23.814Z,99987.11
2019-03-03T09:57:24.105Z,99991.42
2019-03-03T10:00:11.101Z,99984.84
2019-03-03T10:03:02.234Z,99985.41
2019-03-03T10:05:49.179Z,99976.33
2019-03-03T10:08:27.557Z,99985.12
2019-03-03T10:11:15.828Z,99987.81
2019-03-03T10:14:07.006Z,99982.03
2019-03-03T10:16:58.405Z,99983.30
2019-03-03T10:19:45.260Z,99992.63
2019-03-03T10:22:22.021Z,99987.01
2019-03-03T10:25:10.355Z,99994.52
2019-03-03T10:27:58.661Z,99983.07
2019-03-03T10:30:59.281Z,99990.09
2019-03-03T10:33:50.369Z,99989.93
2019-03-03T10:36:38.632Z,99991.52
2019-03-03T10:39:33.785Z,99994.98
2019-03-03T10:42:31.097Z,99983.34
2019-03-03T10:45:25.628Z,99975.88
2019-03-03T10:48:12.601Z,99980.47
2019-03-03T10:51:03.672Z,99991.86
2019-03-03T10:53:39.625Z,99981.23
2019-03-03T10:56:26.534Z,99978.56
2019-03-03T10:59:23.690Z,99980.41
2019-03-03T11:02:18.132Z,99980.63
2019-03-03T11:05:21.640Z,99985.25
2019-03-03T11:08:10.223Z,99980.23
2019-03-03T11:10:57.887Z,99987.50
2019-03-03T11:13:48.265Z,99980.97
2019-03-03T11:16:51.775Z,99974.86
2019-03-03T11:19:45.863Z,99984.89
2019-03-03T11:22:32.855Z,99982.76
2019-03-03T11:25:07.182Z,99981.92
2019-03-03T11:27:50.765Z,99975.71
2019-03-03T11:30:54.149Z,99977.19
2019-03-03T11:33:54.406Z,99972.97
2019-03-03T11:36:39.661Z,99973.22
2019-03-03T11:39:43.488Z,99971.94
2019-03-03T11:42:32.135Z,99969.95
2019-03-03T11:45:20.417Z,99966.50
2019-03-03T11:48:07.127Z,99960.41
2019-03-03T11:50:52.837Z,99957.57
2019-03-03T11:53:49.662Z,99949.35
2019-03-03T11:56:26.833Z,99948.36
2019-03-03T11:59:21.344Z,99940.94
2019-03-03T12:02:18.685Z,99931.40
2019-03-03T12:05:05.787Z,99933.60
2019-03-03T12:07:57.394Z,99929.76
2019-03-03T12:10:55.048Z,99924.83
2019-03-03T12:13:36.232Z,99922.64
2019-03-03T12:16:24.557Z,99922.17
2019-03-03T12:19:11.333Z,99916.91
2019-03-03T12:22:05.559Z,99908.31
2019-03-03T12:24:51.465Z,99899.44
2019-03-03T12:27:46.097Z,99906.16
2019-03-03T12:30:25.863Z,99898.05
2019-03-03T12:33:12.842Z,99888.17
2019-03-03T12:35:55.105Z,99887.17
2019-03-03T12:38:42.207Z,99879.72
2019-03-03T12:41:30.525Z,99868.36
2019-03-03T12:44:30.839Z,99874.95
2019-03-03T12:47:21.989Z,99882.38
2019-03-03T12:50:22.299Z,99867.02
2019-03-03T12:53:22.604Z,99858.13
2019-03-03T12:56:16.772Z,99858.77
2019-03-03T12:59:05.024Z,99849.28
2019-03-03T13:01:57.466Z,99848.05
2019-03-03T13:04:50.938Z,99837.92
2019-03-03T13:07:35.556Z,99830.19
2019-03-03T13:10:17.492Z,99838.80
2019-03-03T13:12:55.630Z,99840.98
2019-03-03T13:15:51.535Z,99840.73
2019-03-03T13:18:45.812Z,99832.45
2019-03-03T13:21:34.075Z,99837.05
2019-03-03T13:24:21.181Z,99840.14
2019-03-03T13:27:09.574Z,99834.30
2019-03-03T13:30:06.958Z,99835.19
2019-03-03T13:32:55.248Z,99833.70
2019-03-03T13:35:49.550Z,99816.22
2019-03-03T13:38:36.785Z,99820.94
2019-03-03T13:41:28.088Z,99820.59
2019-03-03T13:43:57.738Z,99815.96
2019-03-03T13:46:27.334Z,99815.59
2019-03-03T13:48:57.046Z,99804.29
2019-03-03T13:51:26.605Z,99796.16
2019-03-03T13:53:56.215Z,99784.30
2019-03-03T13:56:25.586Z,99791.19
2019-03-03T13:58:55.058Z,99779.22
2019-03-03T14:01:24.440Z,99780.93
2019-03-03T14:03:53.925Z,99767.45
2019-03-03T14:06:23.416Z,99769.80
2019-03-03T14:08:52.895Z,99762.80
2019-03-03T14:11:31.241Z,99750.05
2019-03-03T14:14:00.823Z,99747.88
2019-03-03T14:16:30.609Z,99748.94
2019-03-03T14:19:00.295Z,99737.20
2019-03-03T14:21:29.705Z,99740.59
2019-03-03T14:23:59.179Z,99737.48
2019-03-03T14:26:28.864Z,99725.41
2019-03-03T14:28:58.434Z,99728.91
2019-03-03T14:31:27.825Z,99724.98
2019-03-03T14:33:57.312Z,99729.99
2019-03-03T14:36:26.716Z,99727.98
2019-03-03T14:38:56.237Z,99715.20
2019-03-03T14:41:25.605Z,99725.23
2019-03-03T14:43:55.051Z,99722.90
2019-03-03T14:46:24.505Z,99719.34
2019-03-03T14:48:53.972Z,99726.56
2019-03-03T14:51:23.447Z,99718.59
2019-03-03T14:53:52.906Z,99717.89
2019-03-03T14:56:22.305Z,99716.42
2019-03-03T14:58:51.814Z,99705.90
2019-03-03T15:01:21.285Z,99711.95
2019-03-03T15:03:50.707Z,99705.06
2019-03-03T15:06:24.368Z,99710.28
2019-03-03T15:08:51.432Z,99706.93
2019-03-03T15:11:20.834Z,99699.55
2019-03-03T15:13:50.386Z,99693.17
2019-03-03T15:16:19.813Z,99684.48
2019-03-03T15:18:49.246Z,99683.68
2019-03-03T15:21:25.059Z,99691.22
2019-03-03T15:23:49.839Z,99680.89
2019-03-03T15:26:19.336Z,99672.53
2019-03-03T15:28:48.748Z,99681.52
2019-03-03T15:31:18.245Z,99671.16
2019-03-03T15:33:47.638Z,99677.53
2019-03-03T15:36:17.055Z,99675.34
2019-03-03T15:38:46.473Z,99664.83
2019-03-03T15:41:16.541Z,99661.81
2019-03-03T15:43:46.006Z,99650.08
2019-03-03T15:46:15.427Z,99653.87
2019-03-03T15:48:44.896Z,99652.53
2019-03-03T15:51:14.299Z,99658.70
2019-03-03T15:53:43.844Z,99646.49
2019-03-03T15:56:13.298Z,99635.76
2019-03-03T15:58:42.693Z,99632.34
2019-03-03T16:01:16.557Z,99630.02
2019-03-03T16:03:45.948Z,99630.02
2019-03-03T16:06:15.473Z,99627.87
2019-03-03T16:08:44.903Z,99614.23
2019-03-03T16:11:14.342Z,99608.23
2019-03-03T16:13:43.782Z,99606.34
2019-03-03T16:16:13.267Z,99602.67
2019-03-03T16:18:42.673Z,99597.64
2019-03-03T16:21:12.144Z,99607.34
2019-03-03T16:23:41.568Z,99599.63
2019-03-03T16:26:11.102Z,99590.91
2019-03-03T16:28:40.525Z,99596.06
2019-03-03T16:31:09.974Z,99594.17
2019-03-03T16:33:39.370Z,99587.46
2019-03-03T16:36:08.892Z,99593.81
2019-03-03T16:38:38.305Z,99590.13
2019-03-03T16:41:07.659Z,99591.80
2019-03-03T16:43:37.163Z,99585.39
2019-03-03T16:46:06.628Z,99584.63
2019-03-03T16:48:36.134Z,99587.00
2019-03-03T16:51:05.515Z,99585.44
2019-03-03T16:53:34.942Z,99583.75
2019-03-03T16:56:04.387Z,99581.72
2019-03-03T16:58:33.965Z,99578.69
2019-03-03T17:01:03.439Z,99580.45
2019-03-03T17:03:32.898Z,99583.25
2019-03-03T17:06:02.301Z,99578.01
2019-03-03T17:08:31.731Z,99576.81
2019-03-03T17:11:01.143Z,99578.44
2019-03-03T17:13:30.669Z,99574.30
2019-03-03T17:16:00.067Z,99564.16
2019-03-03T17:18:29.497Z,99560.77
2019-03-03T17:20:58.980Z,99556.98
2019-03-03T17:23:28.417Z,99547.99
2019-03-03T17:25:57.834Z,99525.09
2019-03-03T17:28:27.289Z,99519.58
2019-03-03T17:30:56.688Z,99526.44
2019-03-03T17:33:26.110Z,99532.15
2019-03-03T17:35:55.478Z,99524.62
2019-03-03T17:38:24.966Z,99528.45
2019-03-03T17:40:54.396Z,99517.76
2019-03-03T17:43:23.937Z,99515.79
2019-03-03T17:45:53.390Z,99508.61
2019-03-03T17:48:22.823Z,99513.10
2019-03-03T17:50:52.482Z,99509.08
2019-03-03T17:53:22.123Z,99508.63
2019-03-03T17:55:51.566Z,99507.59
2019-03-03T17:58:21.184Z,99502.88
2019-03-03T18:00:50.577Z,99497.06
2019-03-03T18:03:20.081Z,99495.05
2019-03-03T18:05:49.507Z,99501.53
2019-03-03T18:08:18.938Z,99485.41
2019-03-03T18:10:48.476Z,99492.45
2019-03-03T18:13:17.899Z,99483.75
2019-03-03T18:15:47.393Z,99482.87
2019-03-03T18:18:16.793Z,99476.23
2019-03-03T18:20:46.282Z,99466.64
2019-03-03T18:23:15.718Z,99464.98
2019-03-03T18:25:45.218Z,99460.64
2019-03-03T18:28:14.613Z,99457.59
2019-03-03T18:30:44.056Z,99458.70
2019-03-03T18:33:13.495Z,99451.33
2019-03-03T18:35:43.047Z,99459.64
2019-03-03T18:38:12.434Z,99449.30
2019-03-03T18:40:41.975Z,99447.25
2019-03-03T18:43:11.384Z,99453.58
2019-03-03T18:45:40.809Z,99446.97
2019-03-03T18:48:10.265Z,99452.59
2019-03-03T18:50:39.727Z,99448.89
2019-03-03T18:53:09.235Z,99439.59
2019-03-03T18:55:38.682Z,99437.24
2019-03-03T18:58:08.046Z,99432.95
2019-03-03T19:00:37.627Z,99434.64
2019-03-03T19:03:07.139Z,99428.59
2019-03-03T19:05:36.622Z,99428.10
2019-03-03T19:08:06.048Z,99434.27
2019-03-03T19:10:35.482Z,99434.89
2019-03-03T19:13:04.913Z,99431.67
2019-03-03T19:15:34.435Z,99428.02
2019-03-03T19:18:03.899Z,99430.37
2019-03-03T19:20:33.272Z,99421.37
2019-03-03T19:23:02.787Z,99432.92
2019-03-03T19:25:32.368Z,99428.92
2019-03-03T19:28:01.858Z,99426.55
2019-03-03T19:30:31.220Z,99426.55
2019-03-03T19:33:13.230Z,99423.57
2019-03-03T19:35:42.668Z,99409.52
2019-03-03T19:38:12.186Z,99401.16
2019-03-03T19:40:41.628Z,99402.18
2019-03-03T19:43:11.142Z,99404.05
2019-03-03T19:45:40.600Z,99397.97
2019-03-03T19:48:10.265Z,99395.48
2019-03-03T19:50:39.634Z,99390.66
2019-03-03T19:53:09.134Z,99385.27
2019-03-03T19:55:38.592Z,99389.96
2019-03-03T19:58:08.043Z,99394.41
2019-03-03T20:00:39.085Z,99390.80
2019-03-03T20:03:08.754Z,99388.80
2019-03-03T20:05:38.156Z,99388.45
2019-03-03T20:08:07.659Z,99382.14
2019-03-03T20:10:37.259Z,99379.30
2019-03-03T20:13:06.903Z,99382.11
2019-03-03T20:15:36.564Z,99370.92
2019-03-03T20:18:07.074Z,99369.60
2019-03-03T20:20:36.513Z,99353.84
2019-03-03T20:23:05.969Z,99359.91
2019-03-03T20:25:35.378Z,99353.31
2019-03-03T20:28:04.860Z,99339.36
2019-03-03T20:30:34.752Z,99333.69
2019-03-03T20:33:04.209Z,99333.91
2019-03-03T20:35:33.665Z,99340.80
2019-03-03T20:38:03.135Z,99348.61
2019-03-03T20:40:32.647Z,99345.13
2019-03-03T20:43:02.110Z,99339.42
2019-03-03T20:45:31.480Z,99332.39
2019-03-03T20:48:00.900Z,99335.02
2019-03-03T20:50:30.250Z,99327.63
2019-03-03T20:52:59.752Z,99333.48
2019-03-03T20:55:29.214Z,99320.59
2019-03-03T20:57:58.636Z,99328.89
2019-03-03T21:00:28.066Z,99332.95
2019-03-03T21:02:57.472Z,99325.61
2019-03-03T21:05:26.957Z,99330.39
2019-03-03T21:07:56.369Z,99325.91
2019-03-03T21:10:25.830Z,99318.09
2019-03-03T21:12:55.298Z,99309.27
2019-03-03T21:15:24.770Z,99312.63
2019-03-03T21:17:54.260Z,99317.73
2019-03-03T21:20:23.703Z,99315.13
2019-03-03T21:22:53.204Z,99314.70
2019-03-03T21:25:22.654Z,99300.34
2019-03-03T21:27:52.097Z,99297.45
2019-03-03T21:30:22.862Z,99304.13
2019-03-03T21:32:52.466Z,99307.27
2019-03-03T21:35:21.978Z,99298.16
2019-03-03T21:37:51.457Z,99295.55
2019-03-03T21:40:20.969Z,99288.91
2019-03-03T21:42:50.403Z,99280.44
2019-03-03T21:45:20.283Z,99284.48
2019-03-03T21:47:49.814Z,99257.84
2019-03-03T21:50:20.966Z,99249.99
2019-03-03T21:52:50.468Z,99247.30
2019-03-03T21:55:19.926Z,99239.84
2019-03-03T21:57:49.307Z,99240.94
2019-03-03T22:00:21.839Z,99246.33
2019-03-03T22:02:51.233Z,99248.87
2019-03-03T22:05:20.709Z,99242.32
2019-03-03T22:07:50.148Z,99239.75
2019-03-03T22:10:19.536Z,99236.17
2019-03-03T22:12:48.997Z,99224.08
2019-03-03T22:15:18.365Z,99208.97
2019-03-03T22:17:47.937Z,99205.34
2019-03-03T22:20:17.315Z,99196.28
2019-03-03T22:22:46.739Z,99209.02
2019-03-03T22:25:16.178Z,99204.12
2019-03-03T22:27:45.713Z,99217.09
2019-03-03T22:30:15.189Z,99226.59
2019-03-03T22:32:44.674Z,99195.63
2019-03-03T22:35:14.330Z,99186.41
2019-03-03T22:37:43.814Z,99170.94
2019-03-03T22:40:13.519Z,99157.48
2019-03-03T22:42:42.971Z,99146.18
2019-03-03T22:45:13.522Z,99148.92
2019-03-03T22:47:43.032Z,99141.34
2019-03-03T22:50:12.870Z,99134.50
2019-03-03T22:52:42.400Z,99131.53
2019-03-03T22:55:12.050Z,99134.41
2019-03-03T22:57:41.482Z,99138.47
2019-03-03T23:00:20.663Z,99134.58
2019-03-03T23:02:50.141Z,99133.86
2019-03-03T23:05:25.056Z,99132.55
2019-03-03T23:08:04.561Z,99138.03
2019-03-03T23:10:59.088Z,99131.02
2019-03-03T23:14:00.028Z,99115.06
2019-03-03T23:16:46.726Z,99114.45
2019-03-03T23:19:50.773Z,99121.32
2019-03-03T23:22:42.611Z,99109.21
2019-03-03T23:25:52.664Z,99101.25
2019-03-03T23:28:23.269Z,99092.64
2019-03-03T23:30:53.867Z,99095.42
2019-03-03T23:33:23.616Z,99088.14
2019-03-03T23:35:53.377Z,99070.13
2019-03-03T23:38:23.026Z,99074.59
2019-03-03T23:40:52.699Z,99088.25
2019-03-03T23:43:22.626Z,99080.58
2019-03-03T23:45:52.219Z,99068.01
2019-03-03T23:48:24.545Z,99070.91
2019-03-03T23:50:54.265Z,99069.08
2019-03-03T23:53:23.965Z,99048.06
2019-03-03T23:55:53.615Z,99037.16
2019-03-03T23:58:23.380Z,99042.14
